Time;durP1;ratioP1;P1;durP2;ratioP2;P2;SDS_P1;SDS_P2;PMS_P1;PMS_P2;Temp;Humidity;BMP_temperature;BMP_pressure;BME280_temperature;BME280_humidity;BME280_pressure;Samples;Min_cycle;Max_cycle;Signal;HPM_P1;HPM_P2
2022/06/12 00:00:38;;;;;;;8.57;7.27;;;;;;;19.05;100.00;94650.53;6097331;23;20910;-83
2022/06/12 00:03:07;;;;;;;7.03;5.73;;;;;;;19.03;100.00;94647.25;6097635;23;20394;-83
2022/06/12 00:05:39;;;;;;;7.83;5.87;;;;;;;19.05;100.00;94648.69;6097112;23;20914;-83
2022/06/12 00:08:08;;;;;;;7.67;6.33;;;;;;;19.00;100.00;94643.13;6096954;23;20408;-83
2022/06/12 00:10:37;;;;;;;8.50;6.03;;;;;;;18.95;100.00;94634.88;6096636;23;20414;-83
2022/06/12 00:13:04;;;;;;;7.37;6.67;;;;;;;18.88;100.00;94645.47;6096976;23;20417;-82
2022/06/12 00:15:32;;;;;;;7.27;6.67;;;;;;;18.79;100.00;94641.25;6096790;23;20446;-83
2022/06/12 00:18:00;;;;;;;6.53;5.83;;;;;;;18.67;100.00;94636.59;6096647;23;20742;-83
2022/06/12 00:20:28;;;;;;;8.10;5.97;;;;;;;18.65;100.00;94635.97;6096614;23;20751;-83
2022/06/12 00:22:58;;;;;;;8.90;7.00;;;;;;;18.63;100.00;94624.69;6096542;23;20824;-83
2022/06/12 00:25:30;;;;;;;7.97;7.27;;;;;;;18.57;100.00;94632.38;6096808;23;20407;-83
2022/06/12 00:27:57;;;;;;;8.20;7.07;;;;;;;18.51;100.00;94630.47;6096993;23;20418;-83
2022/06/12 00:30:26;;;;;;;7.40;6.80;;;;;;;18.46;100.00;94622.19;6096645;23;20439;-83
2022/06/12 00:32:54;;;;;;;7.70;7.00;;;;;;;18.39;100.00;94617.81;6097113;23;20407;-83
2022/06/12 00:35:24;;;;;;;12.67;7.77;;;;;;;18.27;100.00;94622.78;6097163;23;20405;-83
2022/06/12 00:37:52;;;;;;;10.30;8.33;;;;;;;18.20;100.00;94621.84;6097294;23;20406;-83
2022/06/12 00:40:22;;;;;;;12.50;7.97;;;;;;;18.10;100.00;94623.94;6096667;23;20415;-83
2022/06/12 00:42:53;;;;;;;8.93;7.80;;;;;;;18.02;100.00;94629.34;6096642;23;20895;-83
2022/06/12 00:45:51;;;;;;;7.90;7.30;;;;;;;18.02;100.00;94626.69;6097217;23;20410;-83
2022/06/12 00:48:21;;;;;;;8.00;7.30;;;;;;;17.97;100.00;94616.63;6036111;23;20968;-82
2022/06/12 00:50:54;;;;;;;9.30;8.30;;;;;;;17.98;100.00;94620.09;6036278;23;20401;-83
2022/06/12 00:53:28;;;;;;;11.30;7.70;;;;;;;17.98;100.00;94625.41;6036458;23;20413;-83
2022/06/12 00:56:06;;;;;;;13.07;8.67;;;;;;;17.93;100.00;94624.13;6035784;23;20885;-83
2022/06/12 00:58:38;;;;;;;10.80;9.00;;;;;;;17.96;100.00;94622.94;5989259;23;20436;-82
2022/06/12 01:01:10;;;;;;;8.60;7.80;;;;;;;17.91;100.00;94626.13;6036272;23;20427;-83
2022/06/12 01:06:33;;;;;;;9.23;8.00;;;;;;;17.95;100.00;94621.28;6036088;23;20405;-83
2022/06/12 01:06:35;;;;;;;17.90;8.17;;;;;;;17.99;100.00;94622.56;6035930;23;20909;-83
2022/06/12 01:09:05;;;;;;;10.10;8.20;;;;;;;17.97;100.00;94621.13;6036209;23;20500;-83
2022/06/12 01:11:36;;;;;;;10.80;8.10;;;;;;;17.97;100.00;94621.94;6035933;23;20449;-83
2022/06/12 01:14:07;;;;;;;8.73;7.90;;;;;;;17.98;100.00;94615.63;6036446;23;20412;-83
2022/06/12 01:16:38;;;;;;;9.73;8.83;;;;;;;18.00;100.00;94618.09;6036366;23;21044;-84
2022/06/12 01:19:07;;;;;;;12.13;8.00;;;;;;;18.03;100.00;94623.03;6036320;23;20408;-83
2022/06/12 01:22:01;;;;;;;8.13;7.50;;;;;;;18.05;100.00;94616.53;6036391;23;20527;-83
2022/06/12 01:24:43;;;;;;;9.27;8.20;;;;;;;18.09;100.00;94614.34;6078155;23;20410;-83
2022/06/12 01:27:48;;;;;;;9.57;7.77;;;;;;;18.08;100.00;94612.69;6096414;23;20415;-83
2022/06/12 01:30:21;;;;;;;9.83;8.73;;;;;;;18.03;100.00;94607.09;5965750;23;20448;-83
2022/06/12 01:32:56;;;;;;;8.80;7.97;;;;;;;18.03;100.00;94610.59;6035820;23;20512;-83
2022/06/12 01:35:35;;;;;;;8.53;7.73;;;;;;;18.04;100.00;94598.94;6035974;23;20463;-83
2022/06/12 01:38:12;;;;;;;8.03;7.33;;;;;;;18.01;100.00;94604.63;6036066;23;20397;-83
2022/06/12 01:40:46;;;;;;;10.60;8.40;;;;;;;17.95;100.00;94610.69;6035806;23;20455;-83
2022/06/12 01:43:18;;;;;;;10.33;8.13;;;;;;;17.92;100.00;94611.84;6036034;23;20401;-83
2022/06/12 01:45:56;;;;;;;11.60;9.03;;;;;;;17.89;100.00;94608.72;6036052;23;20400;-83
2022/06/12 01:48:32;;;;;;;9.30;8.50;;;;;;;17.96;100.00;94612.31;6035939;23;20446;-83
2022/06/12 01:51:12;;;;;;;8.20;7.40;;;;;;;17.99;100.00;94611.13;6035906;23;20408;-83
2022/06/12 01:53:46;;;;;;;9.20;8.40;;;;;;;17.94;100.00;94617.00;6035912;23;20907;-83
2022/06/12 01:56:20;;;;;;;8.43;7.57;;;;;;;17.95;100.00;94610.69;6035774;23;20409;-83
2022/06/12 01:58:56;;;;;;;8.93;8.10;;;;;;;17.98;100.00;94622.75;6035603;23;20408;-84
2022/06/12 02:01:29;;;;;;;8.60;7.10;;;;;;;18.03;100.00;94620.38;6035893;23;20490;-83
2022/06/12 02:04:02;;;;;;;9.73;8.93;;;;;;;17.99;100.00;94611.13;6035926;23;20400;-83
2022/06/12 02:06:34;;;;;;;8.30;7.60;;;;;;;18.01;100.00;94614.44;6053686;23;20407;-84
2022/06/12 02:09:06;;;;;;;9.50;8.63;;;;;;;18.03;100.00;94607.94;6098112;23;20414;-83
2022/06/12 02:14:32;;;;;;;7.40;6.80;;;;;;;18.04;100.00;94611.41;6097904;23;20421;-84
2022/06/12 02:17:03;;;;;;;7.70;7.10;;;;;;;17.99;100.00;94611.13;6098324;23;20737;-83
2022/06/12 02:19:36;;;;;;;11.07;8.23;;;;;;;17.94;100.00;94604.53;6023390;23;20485;-82
2022/06/12 02:22:09;;;;;;;9.30;8.50;;;;;;;17.95;100.00;94600.88;6098249;23;20486;-82
2022/06/12 02:24:41;;;;;;;9.20;8.40;;;;;;;17.99;100.00;94604.00;6098191;23;20407;-83
2022/06/12 02:27:13;;;;;;;9.30;8.10;;;;;;;17.95;100.00;94600.88;6098028;23;20414;-83
2022/06/12 02:29:43;;;;;;;9.23;8.33;;;;;;;17.91;100.00;94604.06;6098177;23;20449;-84
2022/06/12 02:32:17;;;;;;;7.77;7.10;;;;;;;17.91;100.00;94599.56;6098079;23;20450;-83
2022/06/12 02:34:49;;;;;;;8.07;7.47;;;;;;;17.87;100.00;94598.28;6098284;23;20402;-83
2022/06/12 02:37:21;;;;;;;8.83;8.03;;;;;;;17.91;100.00;94604.88;6098028;23;20417;-83
2022/06/12 02:39:55;;;;;;;8.57;7.77;;;;;;;17.92;100.00;94590.59;6098150;23;20434;-83
2022/06/12 02:42:26;;;;;;;7.87;7.03;;;;;;;17.85;100.00;94597.66;6098247;23;20413;-83
2022/06/12 02:44:59;;;;;;;9.80;8.37;;;;;;;17.89;100.00;94606.06;6097947;23;20411;-83
2022/06/12 02:47:31;;;;;;;9.43;7.70;;;;;;;17.89;100.00;94595.44;6097830;23;20411;-84
2022/06/12 02:49:59;;;;;;;10.60;8.43;;;;;;;17.85;100.00;94607.44;6097923;23;20418;-83
2022/06/12 02:52:35;;;;;;;9.87;9.07;;;;;;;17.85;100.00;94596.81;6098152;23;20457;-83
2022/06/12 02:55:11;;;;;;;8.30;7.60;;;;;;;17.82;100.00;94613.94;6097347;23;20410;-83
2022/06/12 02:57:46;;;;;;;11.90;8.03;;;;;;;17.82;100.00;94616.59;6097555;23;20402;-83
2022/06/12 03:00:19;;;;;;;9.07;8.27;;;;;;;17.81;100.00;94614.13;6097705;23;20425;-83
2022/06/12 03:02:53;;;;;;;10.73;8.10;;;;;;;17.73;100.00;94608.91;6097876;23;20457;-84
2022/06/12 03:05:24;;;;;;;8.87;8.07;;;;;;;17.74;100.00;94616.69;6097437;23;20403;-83
2022/06/12 03:07:55;;;;;;;9.23;8.53;;;;;;;17.75;100.00;94620.97;6098273;23;20450;-83
2022/06/12 03:10:26;;;;;;;8.87;8.07;;;;;;;17.75;100.00;94610.38;6097406;23;20438;-83
2022/06/12 03:12:55;;;;;;;11.93;8.10;;;;;;;17.69;100.00;94608.44;6097298;23;20454;-83
2022/06/12 03:15:36;;;;;;;9.17;8.37;;;;;;;17.67;100.00;94613.09;6097333;23;20406;-83
2022/06/12 03:18:07;;;;;;;9.60;8.70;;;;;;;17.63;100.00;94617.06;6096440;23;20407;-84
2022/06/12 03:20:41;;;;;;;11.10;8.80;;;;;;;17.65;100.00;94615.09;6023394;23;20417;-83
2022/06/12 03:23:17;;;;;;;10.20;8.50;;;;;;;17.64;100.00;94613.44;6097366;23;20402;-83
2022/06/12 03:25:51;;;;;;;8.97;8.07;;;;;;;17.62;100.00;94608.28;6098101;23;20438;-82
2022/06/12 03:28:27;;;;;;;9.90;8.53;;;;;;;17.61;100.00;94609.28;6097173;23;20422;-83
2022/06/12 03:31:02;;;;;;;10.03;9.03;;;;;;;17.66;100.00;94616.72;6068812;23;20404;-82
2022/06/12 03:33:39;;;;;;;13.43;8.90;;;;;;;17.65;100.00;94615.09;6070238;23;20439;-86
2022/06/12 03:36:13;;;;;;;8.87;8.17;;;;;;;17.65;100.00;94613.25;6070354;23;20502;-85
2022/06/12 03:38:47;;;;;;;9.40;8.50;;;;;;;17.66;100.00;94611.44;6069047;23;20506;-82
2022/06/12 03:41:24;;;;;;;9.67;8.77;;;;;;;17.69;100.00;94615.59;6068240;23;20443;-82
2022/06/12 03:44:00;;;;;;;8.77;7.97;;;;;;;17.73;100.00;94615.03;6068143;23;20410;-81
2022/06/12 03:46:36;;;;;;;10.50;9.53;;;;;;;17.78;100.00;94611.84;6068716;23;20387;-79
2022/06/12 03:49:12;;;;;;;9.77;8.80;;;;;;;17.81;100.00;94608.81;6068399;23;20411;-80
2022/06/12 03:51:42;;;;;;;10.10;9.20;;;;;;;17.83;100.00;94606.81;6068341;23;20624;-79
2022/06/12 03:54:24;;;;;;;8.90;8.10;;;;;;;17.83;100.00;94612.94;6042344;23;20409;-80
2022/06/12 03:59:46;;;;;;;10.53;9.63;;;;;;;17.86;100.00;94606.44;6068466;23;20903;-80
2022/06/12 04:02:17;;;;;;;9.70;8.83;;;;;;;17.91;100.00;94612.03;6068622;23;20408;-80
2022/06/12 04:04:48;;;;;;;12.77;8.30;;;;;;;17.92;100.00;94611.84;6067879;23;20408;-80
2022/06/12 04:07:17;;;;;;;9.70;8.67;;;;;;;18.08;100.00;94610.03;6068326;23;20740;-81
2022/06/12 04:09:47;;;;;;;10.43;7.30;;;;;;;18.39;100.00;94621.28;6068929;23;20442;-81
2022/06/12 04:12:19;;;;;;;9.50;8.50;;;;;;;18.62;100.00;94615.91;6068585;23;20447;-81
2022/06/12 04:14:53;;;;;;;11.23;8.67;;;;;;;18.92;100.00;94624.63;6068235;23;20410;-81
2022/06/12 04:17:21;;;;;;;8.97;8.00;;;;;;;19.30;100.00;94627.06;6068576;23;20445;-81
2022/06/12 04:20:04;;;;;;;8.03;7.30;;;;;;;19.41;100.00;94624.75;6068541;23;20412;-82
2022/06/12 04:22:43;;;;;;;9.47;8.57;;;;;;;19.36;100.00;94626.28;6068517;23;20435;-81
2022/06/12 04:25:26;;;;;;;9.57;8.77;;;;;;;19.48;100.00;94632.78;6068344;23;20417;-82
2022/06/12 04:27:53;;;;;;;9.70;8.80;;;;;;;19.67;100.00;94634.84;6068216;23;20498;-80
2022/06/12 04:30:24;;;;;;;9.77;8.77;;;;;;;19.60;100.00;94625.94;6090110;23;20440;-81
2022/06/12 04:33:09;;;;;;;9.40;8.53;;;;;;;19.55;99.87;94631.03;6022419;23;20448;-81
2022/06/12 04:35:42;;;;;;;11.10;9.33;;;;;;;19.70;99.35;94639.78;6096825;23;20406;-81
2022/06/12 04:38:09;;;;;;;8.67;7.87;;;;;;;19.81;99.00;94641.06;6096557;23;20418;-81
2022/06/12 04:40:36;;;;;;;13.60;8.80;;;;;;;19.82;98.26;94647.22;6096978;23;20438;-80
2022/06/12 04:43:03;;;;;;;9.30;8.50;;;;;;;19.60;96.97;94641.09;6090750;23;20875;-82
2022/06/12 04:45:30;;;;;;;10.23;9.00;;;;;;;19.33;97.95;94638.16;6046164;23;20414;-82
2022/06/12 04:47:57;;;;;;;10.43;9.10;;;;;;;19.13;99.23;94634.47;6096201;23;20409;-82
2022/06/12 04:50:24;;;;;;;10.10;9.10;;;;;;;18.80;100.00;94636.78;6096385;23;20414;-82
2022/06/12 04:52:52;;;;;;;12.30;10.93;;;;;;;18.63;100.00;94635.31;6096327;23;20453;-82
2022/06/12 04:55:19;;;;;;;11.37;10.27;;;;;;;18.56;100.00;94644.00;6096584;23;20942;-82
2022/06/12 04:57:46;;;;;;;11.40;10.40;;;;;;;18.44;100.00;94642.81;6096397;23;20755;-81
2022/06/12 05:00:14;;;;;;;14.23;11.67;;;;;;;18.33;100.00;94639.81;6097475;23;20406;-82
2022/06/12 05:02:41;;;;;;;12.60;11.30;;;;;;;18.25;100.00;94643.38;6097592;23;20405;-82
2022/06/12 05:05:08;;;;;;;13.03;11.50;;;;;;;18.16;100.00;94641.81;6047794;23;20414;-81
2022/06/12 05:10:58;;;;;;;25.10;10.93;;;;;;;18.06;100.00;94654.53;6097527;23;20463;-78
2022/06/12 05:13:25;;;;;;;13.13;11.83;;;;;;;18.04;100.00;94646.75;6097779;23;20435;-79
2022/06/12 05:15:52;;;;;;;12.17;11.00;;;;;;;18.04;100.00;94649.41;6098071;23;20378;-78
2022/06/12 05:18:20;;;;;;;10.77;9.77;;;;;;;18.07;100.00;94656.19;6097223;23;20396;-80
2022/06/12 05:20:49;;;;;;;11.43;10.43;;;;;;;18.13;100.00;94658.09;6097527;23;20399;-82
2022/06/12 05:26:41;;;;;;;11.23;10.23;;;;;;;18.28;100.00;94648.31;6096022;23;20399;-80
2022/06/12 05:29:13;;;;;;;9.93;8.97;;;;;;;18.24;100.00;94647.03;6098642;23;20438;-81
2022/06/12 05:31:40;;;;;;;11.20;10.30;;;;;;;18.27;100.00;94652.00;6097920;23;20419;-82
2022/06/12 05:34:07;;;;;;;11.93;10.40;;;;;;;18.31;100.00;94661.25;6097366;23;20534;-84
2022/06/12 05:36:34;;;;;;;10.57;9.60;;;;;;;18.36;100.00;94656.19;6097929;23;20405;-85
2022/06/12 05:39:01;;;;;;;9.60;8.80;;;;;;;18.42;100.00;94658.13;6097544;23;20415;-85
2022/06/12 05:41:28;;;;;;;12.07;10.97;;;;;;;18.54;100.00;94669.94;6096632;23;20492;-83
2022/06/12 05:43:56;;;;;;;10.80;9.80;;;;;;;18.60;100.00;94667.56;6097034;23;20412;-82
2022/06/12 05:46:24;;;;;;;9.70;8.70;;;;;;;18.56;100.00;94678.56;6023707;23;20442;-83
2022/06/12 05:48:50;;;;;;;9.50;8.63;;;;;;;18.62;100.00;94681.47;6097532;23;20414;-85
2022/06/12 05:51:19;;;;;;;11.27;10.20;;;;;;;18.60;100.00;94679.00;6097393;23;20415;-83
2022/06/12 06:00:32;;;;;;;11.83;8.73;;;;;;;18.61;100.00;94685.16;6096812;23;20730;-82
2022/06/12 06:03:01;;;;;;;11.40;10.33;;;;;;;18.60;100.00;94684.31;6098825;23;20780;-82
2022/06/12 06:05:28;;;;;;;10.37;9.37;;;;;;;18.57;100.00;94692.66;6100682;23;20449;-84
2022/06/12 06:07:56;;;;;;;10.80;9.80;;;;;;;18.59;100.00;94693.31;6099867;23;20784;-82
2022/06/12 06:10:27;;;;;;;12.30;10.57;;;;;;;18.60;100.00;94694.97;6097225;23;20437;-82
2022/06/12 06:12:54;;;;;;;12.13;10.93;;;;;;;18.64;100.00;94690.94;6098173;23;20446;-81
2022/06/12 06:15:21;;;;;;;13.27;12.00;;;;;;;18.69;100.00;94698.38;6097400;23;20405;-82
2022/06/12 06:17:52;;;;;;;12.47;11.37;;;;;;;18.70;100.00;94694.69;6097287;23;20972;-81
2022/06/12 06:20:23;;;;;;;11.70;10.60;;;;;;;18.80;100.00;94695.25;6097314;23;20942;-81
2022/06/12 06:22:50;;;;;;;12.03;10.60;;;;;;;18.86;100.00;94705.16;6097776;23;20402;-81
2022/06/12 06:25:17;;;;;;;13.07;11.37;;;;;;;18.81;100.00;94703.06;6098081;23;20420;-80
2022/06/12 06:27:45;;;;;;;13.43;11.90;;;;;;;18.81;100.00;94707.53;6097693;23;20746;-81
2022/06/12 06:30:13;;;;;;;11.73;10.53;;;;;;;18.81;100.00;94712.88;6097283;23;20441;-81
2022/06/12 06:32:41;;;;;;;13.97;11.93;;;;;;;18.76;100.00;94713.38;6097196;23;20839;-81
2022/06/12 06:35:10;;;;;;;14.17;12.20;;;;;;;18.73;100.00;94718.25;6100118;23;20459;-79
2022/06/12 06:37:38;;;;;;;13.37;11.73;;;;;;;18.73;100.00;94727.06;6097292;23;20421;-81
2022/06/12 06:40:07;;;;;;;12.13;10.63;;;;;;;18.74;100.00;94720.72;6096630;23;20432;-81
2022/06/12 06:42:34;;;;;;;14.10;12.03;;;;;;;18.72;100.00;94730.72;6097375;23;20408;-81
2022/06/12 06:47:45;;;;;;;13.73;12.27;;;;;;;18.77;100.00;94732.81;6097091;23;20455;-82
2022/06/12 06:50:16;;;;;;;16.77;13.57;;;;;;;18.83;100.00;94734.78;6096893;23;20446;-81
2022/06/12 06:52:43;;;;;;;14.30;12.90;;;;;;;18.84;100.00;94739.91;6097088;23;20400;-82
2022/06/12 06:55:11;;;;;;;14.47;12.73;;;;;;;18.92;100.00;94743.47;6098716;23;20490;-82
2022/06/12 06:57:39;;;;;;;14.30;12.40;;;;;;;18.95;100.00;94738.59;6091600;23;20893;-82
2022/06/12 07:00:09;;;;;;;12.33;11.13;;;;;;;18.99;100.00;94737.22;6097583;23;20926;-82
2022/06/12 07:02:36;;;;;;;14.47;13.07;;;;;;;19.01;100.00;94729.88;6098038;23;20430;-82
2022/06/12 07:05:03;;;;;;;12.93;11.70;;;;;;;19.11;100.00;94738.41;6097661;23;20426;-82
2022/06/12 07:07:33;;;;;;;14.30;13.00;;;;;;;19.17;100.00;94745.63;6097746;23;20417;-82
2022/06/12 07:09:59;;;;;;;13.73;12.33;;;;;;;19.25;100.00;94747.34;6097886;23;20406;-82
2022/06/12 07:12:26;;;;;;;13.40;12.10;;;;;;;19.31;100.00;94741.28;6097220;23;20424;-82
2022/06/12 07:14:53;;;;;;;13.93;12.63;;;;;;;19.43;100.00;94742.47;6097457;23;21010;-81
2022/06/12 07:17:20;;;;;;;14.70;13.17;;;;;;;19.47;100.00;94737.59;6097890;23;20417;-82
2022/06/12 07:19:47;;;;;;;14.10;12.50;;;;;;;19.57;100.00;94737.31;6097489;23;20411;-82
2022/06/12 07:22:15;;;;;;;18.07;11.97;;;;;;;19.60;100.00;94742.25;6097513;23;20475;-82
2022/06/12 07:24:43;;;;;;;12.43;11.30;;;;;;;19.63;100.00;94745.34;6097268;23;20433;-82
2022/06/12 07:27:11;;;;;;;14.40;12.97;;;;;;;19.71;100.00;94747.91;6097261;23;20414;-82
2022/06/12 07:29:40;;;;;;;12.97;11.37;;;;;;;19.72;100.00;94748.72;6097283;23;20438;-82
2022/06/12 07:32:07;;;;;;;16.13;12.97;;;;;;;19.71;100.00;94747.09;6097237;23;20463;-82
2022/06/12 07:34:34;;;;;;;12.47;11.40;;;;;;;19.75;100.00;94743.84;6097194;23;20743;-82
2022/06/12 07:37:02;;;;;;;12.80;11.50;;;;;;;19.76;100.00;94750.81;6097287;23;20974;-82
2022/06/12 07:39:32;;;;;;;19.73;10.90;;;;;;;19.77;100.00;94757.81;6097231;23;20899;-82
2022/06/12 07:42:00;;;;;;;12.77;11.47;;;;;;;19.79;100.00;94753.09;6097844;23;20886;-82
2022/06/12 07:44:30;;;;;;;12.80;11.60;;;;;;;19.79;100.00;94752.28;6097250;23;20411;-82
2022/06/12 07:46:59;;;;;;;15.93;11.27;;;;;;;19.86;100.00;94760.31;6097638;23;20430;-82
2022/06/12 07:49:28;;;;;;;13.10;11.83;;;;;;;19.88;100.00;94760.97;6096904;23;20410;-82
2022/06/12 07:51:57;;;;;;;12.23;10.90;;;;;;;19.90;100.00;94761.59;6097167;23;20399;-82
2022/06/12 07:54:24;;;;;;;13.23;11.93;;;;;;;19.88;100.00;94759.13;6097417;23;20451;-82
2022/06/12 07:56:52;;;;;;;13.20;11.93;;;;;;;19.89;100.00;94762.59;6096900;23;20443;-83
2022/06/12 07:59:21;;;;;;;14.53;10.83;;;;;;;19.93;100.00;94766.53;6097081;23;20413;-82
2022/06/12 08:01:48;;;;;;;12.43;11.23;;;;;;;19.96;100.00;94766.19;6097405;23;20493;-82
2022/06/12 08:04:15;;;;;;;12.17;11.00;;;;;;;19.99;100.00;94766.63;6097409;23;20539;-82
2022/06/12 08:06:41;;;;;;;12.50;11.30;;;;;;;20.05;100.00;94760.53;6097080;23;20411;-81
2022/06/12 08:09:11;;;;;;;14.23;10.10;;;;;;;20.12;100.00;94765.91;6097082;23;20415;-82
2022/06/12 08:11:39;;;;;;;16.50;13.10;;;;;;;20.17;100.00;94766.16;6096958;23;20396;-82
2022/06/12 08:14:06;;;;;;;18.37;11.10;;;;;;;20.21;100.00;94753.25;6097144;23;20447;-83
2022/06/12 08:16:36;;;;;;;12.90;11.40;;;;;;;20.22;100.00;94765.56;6096759;23;20754;-83
2022/06/12 08:20:24;;;;;;;14.90;12.97;;;;;;;20.15;100.00;94764.69;6096691;23;20422;-82
2022/06/12 08:21:50;;;;;;;15.13;13.07;;;;;;;20.13;100.00;94764.88;6096695;23;20404;-82
2022/06/12 08:24:17;;;;;;;12.73;11.63;;;;;;;20.23;100.00;94777.88;6097510;23;20412;-82
2022/06/12 08:26:44;;;;;;;13.07;11.87;;;;;;;20.24;100.00;94771.53;6097792;23;20401;-82
2022/06/12 08:29:12;;;;;;;13.50;12.30;;;;;;;20.29;100.00;94771.81;6098518;23;20475;-86
2022/06/12 08:31:43;;;;;;;13.17;11.83;;;;;;;20.34;100.00;94772.88;6098119;23;20918;-84
2022/06/12 08:34:15;;;;;;;12.10;10.83;;;;;;;20.40;100.00;94777.44;6098269;23;20453;-82
2022/06/12 08:36:42;;;;;;;10.40;9.60;;;;;;;20.44;100.00;94774.41;6098002;23;20704;-81
2022/06/12 08:39:10;;;;;;;16.33;11.00;;;;;;;20.45;100.00;94770.72;6097786;23;20397;-79
2022/06/12 08:41:42;;;;;;;11.40;10.20;;;;;;;20.51;100.00;94768.09;6024764;23;20883;-81
2022/06/12 08:44:16;;;;;;;12.43;11.37;;;;;;;20.59;100.00;94769.81;6098224;23;20441;-79
2022/06/12 08:46:51;;;;;;;12.50;11.27;;;;;;;20.66;100.00;94774.16;6097889;23;20803;-79
2022/06/12 08:49:28;;;;;;;10.60;9.60;;;;;;;20.69;100.00;94767.63;6097673;23;20414;-79
2022/06/12 08:52:02;;;;;;;13.13;11.90;;;;;;;20.72;100.00;94769.88;6097704;23;20411;-80
2022/06/12 08:54:36;;;;;;;11.40;10.30;;;;;;;20.69;100.00;94770.28;6097528;23;20438;-79
2022/06/12 08:57:08;;;;;;;10.07;9.17;;;;;;;20.67;100.00;94777.66;6097525;23;20788;-79
2022/06/12 08:59:39;;;;;;;11.00;10.00;;;;;;;20.64;100.00;94770.88;6097604;23;20407;-79
2022/06/12 09:02:17;;;;;;;10.70;9.70;;;;;;;20.55;100.00;94769.38;6097307;23;20408;-79
2022/06/12 09:04:44;;;;;;;14.00;10.60;;;;;;;20.55;100.00;94773.88;6097652;23;20486;-80
2022/06/12 09:07:16;;;;;;;10.30;9.43;;;;;;;20.60;100.00;94776.78;6098077;23;20412;-79
2022/06/12 09:10:07;;;;;;;11.20;10.10;;;;;;;20.54;100.00;94769.56;6098047;23;20383;-80
2022/06/12 09:19:49;;;;;;;12.33;10.60;;;;;;;20.58;100.00;94778.81;6009433;23;20365;-78
2022/06/12 09:22:26;;;;;;;10.30;9.27;;;;;;;20.57;100.00;94779.84;6009318;23;20472;-80
2022/06/12 09:25:02;;;;;;;10.03;9.03;;;;;;;20.70;100.00;94785.25;6009526;23;20418;-80
2022/06/12 09:27:38;;;;;;;11.00;10.07;;;;;;;20.84;100.00;94781.69;6009496;23;20449;-80
2022/06/12 09:30:11;;;;;;;12.00;10.43;;;;;;;20.88;100.00;94782.94;6008951;23;20471;-81
2022/06/12 09:32:51;;;;;;;10.73;9.70;;;;;;;20.93;100.00;94785.00;6009072;23;20422;-79
2022/06/12 09:35:39;;;;;;;9.73;8.83;;;;;;;20.98;100.00;94793.25;6008881;23;20450;-83
2022/06/12 09:38:21;;;;;;;10.13;8.90;;;;;;;21.06;100.00;94794.91;6009160;23;20403;-81
2022/06/12 09:41:03;;;;;;;13.87;9.77;;;;;;;21.16;100.00;94790.06;6007803;23;20402;-84
2022/06/12 09:43:37;;;;;;;11.80;9.50;;;;;;;21.28;100.00;94783.16;5965939;23;20588;-82
2022/06/12 09:46:10;;;;;;;10.20;9.30;;;;;;;21.30;100.00;94792.63;6008272;23;20483;-82
2022/06/12 09:48:59;;;;;;;10.90;9.80;;;;;;;21.31;100.00;94783.59;6013950;23;20399;-83
2022/06/12 09:51:51;;;;;;;8.70;8.07;;;;;;;21.22;100.00;94783.94;6097127;23;20399;-83
2022/06/12 10:01:21;;;;;;;10.00;9.20;;;;;;;21.12;100.00;94778.97;6097348;23;20736;-84
2022/06/12 10:03:53;;;;;;;10.40;9.30;;;;;;;21.06;100.00;94784.25;6047327;23;20482;-83
2022/06/12 10:06:27;;;;;;;10.60;9.67;;;;;;;20.98;100.00;94783.38;6097081;23;20392;-83
2022/06/12 10:09:02;;;;;;;10.37;8.60;;;;;;;21.00;100.00;94786.69;6097749;23;20426;-83
2022/06/12 10:11:35;;;;;;;9.63;8.73;;;;;;;21.00;100.00;94773.34;6097372;23;20406;-83
2022/06/12 10:14:06;;;;;;;9.13;8.30;;;;;;;21.06;100.00;94770.91;6096893;23;20435;-83
2022/06/12 10:16:37;;;;;;;11.53;8.73;;;;;;;21.03;100.00;94775.63;6096833;23;20919;-83
2022/06/12 10:19:10;;;;;;;9.47;8.57;;;;;;;21.00;100.00;94778.69;6097367;23;20728;-83
2022/06/12 10:21:41;;;;;;;10.63;9.63;;;;;;;21.08;100.00;94782.19;6096859;23;20479;-83
2022/06/12 10:24:11;;;;;;;12.37;11.20;;;;;;;21.13;100.00;94771.78;6097328;23;20399;-83
2022/06/12 10:26:38;;;;;;;11.00;9.97;;;;;;;21.08;100.00;94775.00;6097470;23;20405;-84
2022/06/12 10:29:10;;;;;;;12.40;9.20;;;;;;;21.18;100.00;94772.00;6098498;23;20443;-84
2022/06/12 10:31:47;;;;;;;9.33;8.40;;;;;;;21.19;100.00;94769.13;6099335;23;20396;-84
2022/06/12 10:34:17;;;;;;;10.17;9.27;;;;;;;21.27;100.00;94768.16;6099542;23;20439;-81
2022/06/12 10:36:44;;;;;;;9.97;9.00;;;;;;;21.34;100.00;94771.69;6099389;23;20403;-80
2022/06/12 10:39:20;;;;;;;8.67;7.97;;;;;;;21.43;100.00;94769.69;6099331;23;20411;-80
2022/06/12 10:41:50;;;;;;;9.97;8.87;;;;;;;21.42;98.81;94768.88;6099282;23;20399;-81
2022/06/12 10:44:37;;;;;;;8.93;8.20;;;;;;;21.48;98.00;94769.91;6098883;23;20406;-81
2022/06/12 10:47:21;;;;;;;9.90;9.00;;;;;;;21.53;95.98;94773.63;6098740;23;20414;-81
2022/06/12 10:49:49;;;;;;;9.70;7.50;;;;;;;21.55;95.96;94774.25;6099320;23;20409;-80
2022/06/12 10:52:19;;;;;;;9.30;8.40;;;;;;;21.68;96.55;94777.97;6099317;23;20410;-79
2022/06/12 10:54:48;;;;;;;7.80;7.20;;;;;;;21.75;97.22;94771.63;6099109;23;20440;-79
2022/06/12 10:57:33;;;;;;;9.20;7.00;;;;;;;21.77;92.05;94771.44;6099675;23;20443;-79
2022/06/12 11:00:05;;;;;;;8.13;6.80;;;;;;;21.74;91.89;94769.16;6099003;23;20398;-79
2022/06/12 11:03:04;;;;;;;11.93;7.10;;;;;;;21.79;92.95;94769.38;6098952;23;20415;-80
2022/06/12 11:05:47;;;;;;;9.53;7.70;;;;;;;21.81;94.15;94762.81;6098983;23;20407;-79
2022/06/12 11:08:34;;;;;;;7.90;7.30;;;;;;;21.87;93.83;94766.50;6099088;23;20404;-80
2022/06/12 11:11:10;;;;;;;12.40;7.03;;;;;;;21.85;90.82;94760.56;6097861;23;20405;-79
2022/06/12 11:14:03;;;;;;;8.37;7.57;;;;;;;21.96;93.52;94757.28;6098393;23;20411;-79
2022/06/12 11:16:44;;;;;;;8.37;6.80;;;;;;;22.09;91.83;94764.53;6098535;23;20403;-78
2022/06/12 11:19:44;;;;;;;9.93;8.27;;;;;;;22.36;93.41;94755.50;6049149;23;20407;-79
2022/06/12 11:22:31;;;;;;;6.93;6.33;;;;;;;22.50;88.96;94761.66;5982184;24;21003;-79
2022/06/12 11:28:41;;;;;;;6.50;6.00;;;;;;;22.53;83.64;94770.09;5981851;24;20910;-79
2022/06/12 11:31:22;;;;;;;7.43;6.70;;;;;;;22.67;84.31;94772.78;5982096;24;20485;-78
2022/06/12 11:34:05;;;;;;;7.70;7.07;;;;;;;22.78;86.68;94767.59;5982143;24;20450;-77
2022/06/12 11:36:38;;;;;;;7.80;7.20;;;;;;;22.86;85.70;94769.28;5936054;24;20410;-77
2022/06/12 11:39:27;;;;;;;7.13;6.23;;;;;;;22.93;84.33;94770.09;5982076;24;20419;-77
2022/06/12 11:42:09;;;;;;;7.87;7.17;;;;;;;22.88;82.85;94769.09;5981884;24;20501;-78
2022/06/12 11:44:57;;;;;;;6.87;6.27;;;;;;;22.96;84.17;94755.47;5981468;24;20965;-78
2022/06/12 11:47:38;;;;;;;7.77;7.07;;;;;;;22.88;82.23;94761.88;5981788;24;20411;-77
2022/06/12 11:50:17;;;;;;;9.13;7.03;;;;;;;22.75;83.99;94757.31;5981966;24;20424;-78
2022/06/12 11:52:54;;;;;;;6.70;6.20;;;;;;;22.59;82.78;94763.13;5981712;24;20414;-77
2022/06/12 11:55:34;;;;;;;6.80;6.20;;;;;;;22.37;82.62;94756.34;5982202;24;21235;-77
2022/06/12 11:58:15;;;;;;;6.70;6.13;;;;;;;22.44;82.40;94763.31;5987245;23;20416;-78
2022/06/12 12:00:53;;;;;;;8.30;6.80;;;;;;;22.39;81.64;94749.75;6098591;23;20391;-77
2022/06/12 12:03:45;;;;;;;7.07;6.40;;;;;;;22.51;84.12;94745.41;6051544;23;20416;-78
2022/06/12 12:06:28;;;;;;;7.67;6.87;;;;;;;22.56;81.85;94748.31;6098775;23;20412;-78
2022/06/12 12:09:07;;;;;;;9.80;6.73;;;;;;;22.75;84.94;94743.94;6097459;23;20399;-79
2022/06/12 12:11:39;;;;;;;8.87;7.40;;;;;;;22.90;86.07;94740.25;6098042;23;20418;-77
2022/06/12 12:14:11;;;;;;;10.57;9.57;;;;;;;23.03;85.38;94740.22;6097517;23;20415;-78
2022/06/12 12:16:44;;;;;;;9.20;8.30;;;;;;;23.16;83.53;94742.88;6098750;23;20411;-78
2022/06/12 12:19:19;;;;;;;7.13;6.50;;;;;;;23.16;81.21;94746.38;6098021;23;20416;-78
2022/06/12 12:21:50;;;;;;;7.50;6.80;;;;;;;23.11;78.38;94742.66;6024425;23;20414;-78
2022/06/12 12:24:22;;;;;;;6.90;6.30;;;;;;;23.19;79.63;94742.44;6098180;23;20407;-78